createdAt,value
2022-08-12T00:00:43.837Z,101482.66
2022-08-12T00:03:28.900Z,101484.41
2022-08-12T00:06:14.986Z,101484.44
2022-08-12T00:09:00.181Z,101480.88
2022-08-12T00:11:46.276Z,101480.00
2022-08-12T00:14:32.472Z,101482.66
2022-08-12T00:17:17.915Z,101485.31
2022-08-12T00:20:03.084Z,101486.16
2022-08-12T00:22:55.234Z,101482.66
2022-08-12T00:26:20.957Z,101484.44
2022-08-12T00:28:59.533Z,101486.16
2022-08-12T00:31:44.769Z,101488.78
2022-08-12T00:34:34.537Z,101494.03
2022-08-12T00:37:19.505Z,101484.34
2022-08-12T00:40:11.435Z,101489.63
2022-08-12T00:42:40.972Z,101501.97
2022-08-12T00:45:08.681Z,101499.31
2022-08-12T00:47:35.891Z,101501.94
2022-08-12T00:50:02.704Z,101501.94
2022-08-12T00:52:29.171Z,101496.63
2022-08-12T00:54:59.670Z,101490.44
2022-08-12T00:57:32.904Z,101490.44
2022-08-12T01:00:09.369Z,101496.59
2022-08-12T01:02:41.158Z,101493.06
2022-08-12T01:05:28.038Z,101493.03
2022-08-12T01:08:13.599Z,101499.19
2022-08-12T01:11:02.278Z,101491.28
2022-08-12T01:13:29.918Z,101500.94
2022-08-12T01:15:59.139Z,101496.50
2022-08-12T01:18:28.128Z,101495.63
2022-08-12T01:21:00.748Z,101501.78
2022-08-12T01:23:51.413Z,101498.22
2022-08-12T01:26:20.986Z,101499.06
2022-08-12T01:28:50.259Z,101501.69
2022-08-12T01:31:17.929Z,101501.66
2022-08-12T01:34:03.420Z,101506.94
2022-08-12T01:36:57.645Z,101493.69
2022-08-12T01:39:35.593Z,101487.53
2022-08-12T01:42:08.864Z,101489.28
2022-08-12T01:44:36.443Z,101483.06
2022-08-12T01:47:30.972Z,101488.31
2022-08-12T01:50:21.055Z,101489.16
2022-08-12T01:52:53.525Z,101498.81
2022-08-12T01:55:23.592Z,101497.03
2022-08-12T01:58:14.085Z,101492.63
2022-08-12T02:00:55.555Z,101491.75
2022-08-12T02:03:54.333Z,101489.06
2022-08-12T02:06:45.546Z,101496.94
2022-08-12T02:09:33.147Z,101488.13
2022-08-12T02:12:27.680Z,101493.34
2022-08-12T02:15:06.118Z,101493.34
2022-08-12T02:17:56.568Z,101488.03
2022-08-12T02:20:52.014Z,101489.72
2022-08-12T02:23:21.786Z,101486.19
2022-08-12T02:25:50.281Z,101493.19
2022-08-12T02:28:16.815Z,101487.91
2022-08-12T02:30:43.728Z,101489.66
2022-08-12T02:33:10.826Z,101488.72
2022-08-12T02:35:39.602Z,101493.09
2022-08-12T02:38:08.923Z,101496.56
2022-08-12T02:40:39.105Z,101491.28
2022-08-12T02:43:17.679Z,101488.59
2022-08-12T02:45:52.386Z,101496.47
2022-08-12T02:48:41.324Z,101485.91
2022-08-12T02:51:10.326Z,101483.25
2022-08-12T02:53:38.149Z,101478.81
2022-08-12T02:56:05.742Z,101482.28
2022-08-12T02:58:33.902Z,101481.41
2022-08-12T03:01:03.721Z,101484.06
2022-08-12T03:03:32.739Z,101473.50
2022-08-12T03:06:01.423Z,101479.63
2022-08-12T03:08:32.562Z,101474.34
2022-08-12T03:11:07.849Z,101475.16
2022-08-12T03:13:41.977Z,101483.03
2022-08-12T03:16:08.738Z,101481.25
2022-08-12T03:18:35.455Z,101486.47
2022-08-12T03:21:02.172Z,101482.91
2022-08-12T03:23:31.065Z,101484.63
2022-08-12T03:26:02.710Z,101486.38
2022-08-12T03:28:49.883Z,101490.72
2022-08-12T03:31:34.539Z,101487.97
2022-08-12T03:34:07.614Z,101491.44
2022-08-12T03:36:35.748Z,101486.09
2022-08-12T03:39:36.365Z,101493.97
2022-08-12T03:42:23.619Z,101488.63
2022-08-12T03:45:28.635Z,101493.88
2022-08-12T03:48:19.780Z,101494.66
2022-08-12T03:51:06.262Z,101496.38
2022-08-12T03:53:51.812Z,101499.84
2022-08-12T03:56:36.889Z,101505.06
2022-08-12T03:59:23.413Z,101498.00
2022-08-12T04:01:55.210Z,101506.72
2022-08-12T04:04:23.463Z,101511.06
2022-08-12T04:06:50.487Z,101505.78
2022-08-12T04:09:19.111Z,101505.72
2022-08-12T04:12:04.405Z,101517.97
2022-08-12T04:14:31.483Z,101509.16
2022-08-12T04:16:58.264Z,101512.66
2022-08-12T04:19:26.292Z,101520.50
2022-08-12T04:22:02.224Z,101513.41
2022-08-12T04:24:31.518Z,101506.41
2022-08-12T04:26:57.960Z,101507.25
2022-08-12T04:30:16.933Z,101504.56
2022-08-12T04:32:11.407Z,101511.59
2022-08-12T04:34:38.685Z,101504.56
2022-08-12T04:37:05.155Z,101512.47
2022-08-12T04:39:31.794Z,101515.16
2022-08-12T04:42:01.034Z,101514.34
2022-08-12T04:44:28.017Z,101512.66
2022-08-12T04:46:54.779Z,101514.44
2022-08-12T04:49:24.161Z,101514.56
2022-08-12T04:51:57.694Z,101510.19
2022-08-12T04:54:27.114Z,101512.00
2022-08-12T04:57:04.504Z,101512.03
2022-08-12T04:59:48.215Z,101505.97
2022-08-12T05:02:21.170Z,101508.69
2022-08-12T05:04:50.821Z,101512.22
2022-08-12T05:07:17.401Z,101506.16
2022-08-12T05:10:00.362Z,101504.44
2022-08-12T05:12:34.408Z,101512.38
2022-08-12T05:15:01.053Z,101510.66
2022-08-12T05:17:28.296Z,101510.72
2022-08-12T05:19:57.177Z,101505.50
2022-08-12T05:22:25.368Z,101507.28
2022-08-12T05:24:52.241Z,101508.28
2022-08-12T05:27:18.676Z,101506.56
2022-08-12T05:30:06.825Z,101511.00
2022-08-12T05:32:36.561Z,101512.81
2022-08-12T05:35:06.423Z,101519.88
2022-08-12T05:37:36.579Z,101514.63
2022-08-12T05:40:10.701Z,101517.31
2022-08-12T05:42:37.893Z,101513.84
2022-08-12T05:45:04.790Z,101519.16
2022-08-12T05:47:48.523Z,101525.34
2022-08-12T05:50:17.782Z,101528.06
2022-08-12T05:52:44.243Z,101529.84
2022-08-12T05:55:11.701Z,101532.56
2022-08-12T05:57:38.927Z,101540.50
2022-08-12T06:00:06.347Z,101537.00
2022-08-12T06:02:32.817Z,101543.22
2022-08-12T06:05:00.312Z,101538.88
2022-08-12T06:07:59.144Z,101542.50
2022-08-12T06:10:13.613Z,101539.03
2022-08-12T06:12:40.229Z,101539.09
2022-08-12T06:15:07.081Z,101541.78
2022-08-12T06:17:33.766Z,101543.56
2022-08-12T06:20:26.684Z,101540.13
2022-08-12T06:22:50.861Z,101541.06
2022-08-12T06:25:22.162Z,101545.50
2022-08-12T06:28:06.693Z,101541.13
2022-08-12T06:30:38.038Z,101547.34
2022-08-12T06:33:25.011Z,101539.44
2022-08-12T06:35:57.683Z,101540.41
2022-08-12T06:38:26.642Z,101542.25
2022-08-12T06:41:13.829Z,101540.50
2022-08-12T06:44:04.611Z,101538.78
2022-08-12T06:46:29.286Z,101537.97
2022-08-12T06:48:59.210Z,101537.09
2022-08-12T06:51:28.532Z,101535.38
2022-08-12T06:53:55.915Z,101536.31
2022-08-12T06:56:34.982Z,101534.53
2022-08-12T06:59:11.563Z,101537.22
2022-08-12T07:01:38.521Z,101532.84
2022-08-12T07:04:26.325Z,101529.34
2022-08-12T07:06:51.539Z,101526.72
2022-08-12T07:10:05.372Z,101539.03
2022-08-12T07:12:04.629Z,101527.59
2022-08-12T07:14:31.586Z,101522.31
2022-08-12T07:17:02.114Z,101531.13
2022-08-12T07:19:40.499Z,101531.13
2022-08-12T07:22:14.102Z,101534.66
2022-08-12T07:24:40.575Z,101533.81
2022-08-12T07:27:07.091Z,101531.13
2022-08-12T07:29:58.196Z,101537.28
2022-08-12T07:32:24.338Z,101539.03
2022-08-12T07:34:50.848Z,101530.22
2022-08-12T07:37:17.808Z,101531.06
2022-08-12T07:39:51.210Z,101529.25
2022-08-12T07:42:26.498Z,101537.16
2022-08-12T07:44:53.092Z,101529.19
2022-08-12T07:47:19.555Z,101530.09
2022-08-12T07:50:03.265Z,101531.81
2022-08-12T07:52:32.632Z,101532.69
2022-08-12T07:54:59.949Z,101531.75
2022-08-12T07:57:26.417Z,101532.59
2022-08-12T07:59:52.869Z,101529.91
2022-08-12T08:02:26.546Z,101535.16
2022-08-12T08:04:56.380Z,101533.34
2022-08-12T08:07:24.019Z,101534.19
2022-08-12T08:09:58.580Z,101536.78
2022-08-12T08:12:45.396Z,101535.00
2022-08-12T08:15:11.915Z,101528.78
2022-08-12T08:17:38.638Z,101531.34
2022-08-12T08:20:06.312Z,101534.84
2022-08-12T08:22:41.620Z,101537.50
2022-08-12T08:25:36.790Z,101525.91
2022-08-12T08:28:17.059Z,101531.19
2022-08-12T08:30:45.664Z,101527.56
2022-08-12T08:33:24.596Z,101528.38
2022-08-12T08:36:00.632Z,101533.59
2022-08-12T08:38:32.857Z,101530.06
2022-08-12T08:42:15.133Z,101528.19
2022-08-12T08:44:07.518Z,101522.69
2022-08-12T08:46:37.506Z,101520.91
2022-08-12T08:49:05.341Z,101519.00
2022-08-12T08:51:31.911Z,101518.06
2022-08-12T08:53:58.349Z,101516.31
2022-08-12T08:56:24.803Z,101508.19
2022-08-12T08:58:51.239Z,101506.31
2022-08-12T09:01:21.571Z,101504.53
2022-08-12T09:05:08.691Z,101498.34
2022-08-12T09:06:37.129Z,101504.53
2022-08-12T09:12:13.130Z,101500.84
2022-08-12T09:14:43.474Z,101505.97
2022-08-12T09:17:13.848Z,101503.25
2022-08-12T09:19:52.284Z,101493.31
2022-08-12T09:22:28.533Z,101496.00
2022-08-12T09:24:55.981Z,101497.72
2022-08-12T09:27:57.645Z,101496.81
2022-08-12T09:30:15.784Z,101493.03
2022-08-12T09:33:05.288Z,101483.16
2022-08-12T09:35:33.648Z,101484.75
2022-08-12T09:38:28.375Z,101480.06
2022-08-12T09:42:08.549Z,101489.66
2022-08-12T09:44:05.222Z,101482.44
2022-08-12T09:46:34.313Z,101485.88
2022-08-12T09:49:01.345Z,101475.16
2022-08-12T09:51:38.420Z,101465.16
2022-08-12T09:54:32.813Z,101464.34
2022-08-12T09:57:03.682Z,101473.03
2022-08-12T10:00:15.052Z,101462.06
2022-08-12T10:02:49.736Z,101467.50
2022-08-12T10:05:17.731Z,101454.03
2022-08-12T10:07:46.713Z,101453.97
2022-08-12T10:10:22.969Z,101445.91
2022-08-12T10:13:37.148Z,101454.53
2022-08-12T10:16:05.858Z,101453.66
2022-08-12T10:18:35.566Z,101459.84
2022-08-12T10:21:06.339Z,101454.66
2022-08-12T10:23:39.459Z,101447.41
2022-08-12T10:26:36.696Z,101458.09
2022-08-12T10:30:02.784Z,101450.97
2022-08-12T10:32:44.654Z,101456.34
2022-08-12T10:35:08.318Z,101451.66
2022-08-12T10:38:37.088Z,101449.03
2022-08-12T10:40:28.642Z,101456.00
2022-08-12T10:43:16.794Z,101443.50
2022-08-12T10:45:43.881Z,101446.09
2022-08-12T10:48:21.871Z,101443.44
2022-08-12T10:50:56.606Z,101445.00
2022-08-12T10:53:43.949Z,101435.25
2022-08-12T10:56:16.784Z,101429.75
2022-08-12T10:58:46.067Z,101429.63
2022-08-12T11:01:50.614Z,101430.25
2022-08-12T11:04:35.707Z,101430.22
2022-08-12T11:07:08.079Z,101426.44
2022-08-12T11:09:59.773Z,101419.22
2022-08-12T11:12:54.697Z,101423.59
2022-08-12T11:15:21.184Z,101417.25
2022-08-12T11:17:53.187Z,101412.91
2022-08-12T11:20:29.090Z,101404.94
2022-08-12T11:22:59.609Z,101408.50
2022-08-12T11:25:42.336Z,101406.84
2022-08-12T11:28:15.985Z,101416.47
2022-08-12T11:30:42.767Z,101406.88
2022-08-12T11:33:11.855Z,101396.34
2022-08-12T11:35:42.938Z,101394.50
2022-08-12T11:38:10.738Z,101404.09
2022-08-12T11:40:37.546Z,101400.41
2022-08-12T11:43:19.315Z,101397.88
2022-08-12T11:45:47.560Z,101396.72
2022-08-12T11:48:19.884Z,101387.72
2022-08-12T11:50:53.580Z,101378.88
2022-08-12T11:53:58.377Z,101377.91
2022-08-12T11:56:07.970Z,101384.91
2022-08-12T12:01:58.483Z,101378.53
2022-08-12T12:02:01.518Z,101375.13
2022-08-12T12:04:11.297Z,101375.03
2022-08-12T12:06:37.758Z,101367.94
2022-08-12T12:09:04.462Z,101376.63
2022-08-12T12:11:49.123Z,101376.00
2022-08-12T12:14:16.032Z,101364.06
2022-08-12T12:16:49.958Z,101367.31
2022-08-12T12:19:17.743Z,101364.78
2022-08-12T12:21:48.585Z,101353.88
2022-08-12T12:24:21.572Z,101351.00
2022-08-12T12:27:00.030Z,101354.47
2022-08-12T12:30:13.408Z,101362.31
2022-08-12T12:32:15.446Z,101355.16
2022-08-12T12:35:14.439Z,101346.13
2022-08-12T12:38:03.667Z,101341.63
2022-08-12T12:40:15.152Z,101335.69
2022-08-12T12:42:57.869Z,101346.44
2022-08-12T12:45:33.338Z,101342.19
2022-08-12T12:48:08.186Z,101343.13
2022-08-12T12:50:45.138Z,101334.81
2022-08-12T12:54:05.862Z,101342.78
2022-08-12T12:56:05.291Z,101339.03
2022-08-12T12:58:31.823Z,101334.28
2022-08-12T13:00:59.996Z,101328.63
2022-08-12T13:03:35.381Z,101326.66
2022-08-12T13:06:15.749Z,101316.69
2022-08-12T13:08:46.798Z,101319.91
2022-08-12T13:11:14.623Z,101319.81
2022-08-12T13:14:10.378Z,101316.69
2022-08-12T13:16:29.632Z,101314.72
2022-08-12T13:18:56.976Z,101319.88
2022-08-12T13:21:36.448Z,101326.88
2022-08-12T13:24:10.178Z,101322.13
2022-08-12T13:26:37.818Z,101323.25
2022-08-12T13:29:04.264Z,101322.88
2022-08-12T13:31:30.709Z,101320.84
2022-08-12T13:34:32.213Z,101321.03
2022-08-12T13:36:50.663Z,101313.88
2022-08-12T13:39:19.618Z,101314.84
2022-08-12T13:41:46.068Z,101317.53
2022-08-12T13:44:16.079Z,101320.25
2022-08-12T13:46:43.492Z,101325.41
2022-08-12T13:49:53.753Z,101320.94
2022-08-12T13:52:11.233Z,101309.16
2022-08-12T13:54:37.841Z,101313.31
2022-08-12T13:57:04.394Z,101313.25
2022-08-12T13:59:48.354Z,101299.69
2022-08-12T14:02:22.695Z,101296.03
2022-08-12T14:04:56.202Z,101308.16
2022-08-12T14:07:23.393Z,101299.34
2022-08-12T14:10:12.386Z,101296.72
2022-08-12T14:12:54.764Z,101302.56
2022-08-12T14:15:36.970Z,101301.69
2022-08-12T14:18:16.975Z,101299.16
2022-08-12T14:20:48.931Z,101298.16
2022-08-12T14:24:08.278Z,101294.91
2022-08-12T14:26:12.127Z,101284.31
2022-08-12T14:28:39.640Z,101278.34
2022-08-12T14:31:18.407Z,101277.69
2022-08-12T14:33:48.796Z,101283.66
2022-08-12T14:36:20.721Z,101279.34
2022-08-12T14:38:49.430Z,101275.81
2022-08-12T14:41:18.160Z,101275.19
2022-08-12T14:44:04.994Z,101277.28
2022-08-12T14:46:34.540Z,101276.13
2022-08-12T14:49:27.552Z,101275.69
2022-08-12T14:52:56.006Z,101275.63
2022-08-12T14:57:24.015Z,101271.72
2022-08-12T15:00:10.267Z,101271.41
2022-08-12T15:02:38.933Z,101271.53
2022-08-12T15:05:06.645Z,101265.03
2022-08-12T15:07:50.375Z,101266.78
2022-08-12T15:10:31.354Z,101261.25
2022-08-12T15:12:59.019Z,101257.47
2022-08-12T15:15:25.728Z,101253.66
2022-08-12T15:17:59.691Z,101248.19
2022-08-12T15:20:37.432Z,101247.81
2022-08-12T15:23:17.480Z,101251.97
2022-08-12T15:25:47.726Z,101256.44
2022-08-12T15:28:21.525Z,101245.47
2022-08-12T15:30:52.086Z,101251.03
2022-08-12T15:33:21.169Z,101255.53
2022-08-12T15:35:53.737Z,101251.38
2022-08-12T15:38:24.572Z,101243.00
2022-08-12T15:40:54.813Z,101245.63
2022-08-12T15:43:35.606Z,101243.06
2022-08-12T15:46:15.424Z,101240.13
2022-08-12T15:48:44.092Z,101245.28
2022-08-12T15:51:27.929Z,101244.41
2022-08-12T15:54:33.667Z,101235.56
2022-08-12T15:57:03.341Z,101239.19
2022-08-12T15:59:32.617Z,101239.94
2022-08-12T16:02:18.453Z,101245.13
2022-08-12T16:04:45.931Z,101228.91
2022-08-12T16:07:12.351Z,101241.31
2022-08-12T16:09:56.072Z,101242.94
2022-08-12T16:12:27.196Z,101240.50
2022-08-12T16:14:55.063Z,101232.16
2022-08-12T16:17:26.026Z,101239.03
2022-08-12T16:20:11.575Z,101236.16
2022-08-12T16:22:38.782Z,101240.47
2022-08-12T16:25:07.050Z,101240.38
2022-08-12T16:27:38.446Z,101234.19
2022-08-12T16:30:05.910Z,101238.66
2022-08-12T16:32:35.934Z,101239.38
2022-08-12T16:35:08.217Z,101222.91
2022-08-12T16:38:24.767Z,101228.16
2022-08-12T16:40:32.756Z,101226.50
2022-08-12T16:43:13.179Z,101214.78
2022-08-12T16:46:23.533Z,101203.97
2022-08-12T16:48:34.814Z,101206.81
2022-08-12T16:51:05.782Z,101210.44
2022-08-12T16:53:44.074Z,101221.53
2022-08-12T16:56:12.390Z,101219.91
2022-08-12T16:58:39.958Z,101212.94
2022-08-12T17:01:11.874Z,101202.06
2022-08-12T17:03:46.994Z,101206.84
2022-08-12T17:06:22.309Z,101192.03
2022-08-12T17:09:03.430Z,101197.84
2022-08-12T17:11:35.357Z,101191.78
2022-08-12T17:14:07.025Z,101192.19
2022-08-12T17:16:35.472Z,101196.19
2022-08-12T17:19:09.724Z,101196.63
2022-08-12T17:21:41.199Z,101201.25
2022-08-12T17:24:21.449Z,101197.53
2022-08-12T17:26:50.237Z,101203.47
2022-08-12T17:29:23.985Z,101193.56
2022-08-12T17:32:08.614Z,101195.81
2022-08-12T17:34:55.004Z,101189.25
2022-08-12T17:37:21.762Z,101196.34
2022-08-12T17:40:14.849Z,101199.25
2022-08-12T17:42:43.466Z,101199.25
2022-08-12T17:45:17.448Z,101187.13
2022-08-12T17:48:05.174Z,101203.31
2022-08-12T17:50:38.094Z,101196.19
2022-08-12T17:53:07.860Z,101198.31
2022-08-12T17:55:44.436Z,101201.25
2022-08-12T17:58:15.906Z,101199.56
2022-08-12T18:00:45.807Z,101211.47
2022-08-12T18:04:04.521Z,101193.84
2022-08-12T18:06:08.498Z,101208.03
2022-08-12T18:08:54.181Z,101195.78
2022-08-12T18:12:06.710Z,101205.13
2022-08-12T18:14:28.707Z,101195.19
2022-08-12T18:16:56.913Z,101201.94
2022-08-12T18:19:23.709Z,101203.25
2022-08-12T18:22:01.791Z,101202.91
2022-08-12T18:24:30.246Z,101202.47
2022-08-12T18:26:57.268Z,101204.63
2022-08-12T18:29:27.189Z,101203.22
2022-08-12T18:32:54.196Z,101200.16
2022-08-12T18:34:58.384Z,101205.06
2022-08-12T18:37:41.878Z,101207.28
2022-08-12T18:40:28.190Z,101205.84
2022-08-12T18:42:54.787Z,101208.09
2022-08-12T18:45:31.351Z,101211.09
2022-08-12T18:48:13.308Z,101214.09
2022-08-12T18:50:49.409Z,101211.75
2022-08-12T18:54:07.579Z,101216.59
2022-08-12T18:56:04.890Z,101220.50
2022-08-12T18:58:53.149Z,101211.13
2022-08-12T19:02:17.901Z,101217.75
2022-08-12T19:04:14.377Z,101217.16
2022-08-12T19:06:40.981Z,101229.03
2022-08-12T19:09:14.832Z,101223.09
2022-08-12T19:12:01.131Z,101224.28
2022-08-12T19:14:32.600Z,101231.66
2022-08-12T19:17:02.109Z,101229.28
2022-08-12T19:19:37.445Z,101233.06
2022-08-12T19:22:08.187Z,101238.59
2022-08-12T19:24:53.201Z,101234.44
2022-08-12T19:27:21.484Z,101242.66
2022-08-12T19:30:06.411Z,101237.56
2022-08-12T19:32:34.661Z,101246.66
2022-08-12T19:38:03.990Z,101244.44
2022-08-12T19:40:35.037Z,101235.84
2022-08-12T19:43:17.279Z,101246.72
2022-08-12T19:45:50.286Z,101247.84
2022-08-12T19:48:20.202Z,101252.47
2022-08-12T19:50:50.447Z,101253.66
2022-08-12T19:53:22.951Z,101252.09
2022-08-12T19:55:52.798Z,101259.47
2022-08-12T19:58:19.702Z,101256.16
2022-08-12T20:00:52.677Z,101259.97
2022-08-12T20:03:39.246Z,101253.16
2022-08-12T20:06:13.418Z,101264.91
2022-08-12T20:08:48.597Z,101261.59
2022-08-12T20:12:11.891Z,101259.13
2022-08-12T20:14:03.730Z,101254.88
2022-08-12T20:19:52.571Z,101256.97
2022-08-12T20:22:24.637Z,101269.56
2022-08-12T20:25:07.372Z,101264.38
2022-08-12T20:28:04.218Z,101268.06
2022-08-12T20:30:52.641Z,101264.59
2022-08-12T20:33:18.376Z,101268.31
2022-08-12T20:36:12.818Z,101266.69
2022-08-12T20:38:39.443Z,101263.25
2022-08-12T20:41:16.811Z,101265.13
2022-08-12T20:43:46.995Z,101259.94
2022-08-12T20:46:14.097Z,101261.84
2022-08-12T20:48:43.389Z,101259.34
2022-08-12T20:51:15.794Z,101269.16
2022-08-12T20:53:57.997Z,101267.53
2022-08-12T20:56:34.347Z,101265.84
2022-08-12T20:59:04.831Z,101268.63
2022-08-12T21:01:46.198Z,101259.00
2022-08-12T21:04:33.949Z,101261.72
2022-08-12T21:07:08.726Z,101269.81
2022-08-12T21:09:40.881Z,101266.28
2022-08-12T21:12:28.159Z,101265.47
2022-08-12T21:15:23.861Z,101270.91
2022-08-12T21:18:08.885Z,101269.19
2022-08-12T21:20:35.070Z,101263.09
2022-08-12T21:23:05.802Z,101261.44
2022-08-12T21:25:35.984Z,101266.78
2022-08-12T21:28:11.322Z,101266.94
2022-08-12T21:31:10.686Z,101274.94
2022-08-12T21:33:31.096Z,101262.66
2022-08-12T21:35:58.128Z,101262.72
2022-08-12T21:38:30.566Z,101260.19
2022-08-12T21:41:01.574Z,101267.31
2022-08-12T21:43:38.949Z,101271.81
2022-08-12T21:46:33.698Z,101264.84
2022-08-12T21:49:03.984Z,101258.66
2022-08-12T21:51:49.516Z,101265.81
2022-08-12T21:54:24.331Z,101260.63
2022-08-12T21:56:53.843Z,101273.03
2022-08-12T21:59:21.833Z,101267.81
2022-08-12T22:01:49.614Z,101272.28
2022-08-12T22:04:35.044Z,101263.47
2022-08-12T22:07:01.724Z,101267.06
2022-08-12T22:09:29.042Z,101268.88
2022-08-12T22:12:20.824Z,101260.09
2022-08-12T22:14:48.070Z,101275.13
2022-08-12T22:17:14.732Z,101269.00
2022-08-12T22:19:49.667Z,101276.06
2022-08-12T22:22:16.757Z,101276.09
2022-08-12T22:24:45.482Z,101273.47
2022-08-12T22:27:31.795Z,101277.91
2022-08-12T22:30:19.702Z,101268.25
2022-08-12T22:32:51.497Z,101280.69
2022-08-12T22:35:55.481Z,101272.78
2022-08-12T22:38:23.384Z,101275.50
2022-08-12T22:40:52.060Z,101270.22
2022-08-12T22:43:58.624Z,101271.16
2022-08-12T22:46:41.964Z,101274.75
2022-08-12T22:49:20.696Z,101271.22
2022-08-12T22:52:00.085Z,101262.47
2022-08-12T22:54:35.995Z,101263.41
2022-08-12T22:57:12.140Z,101265.19
2022-08-12T22:59:55.790Z,101266.13
2022-08-12T23:02:28.955Z,101267.03
2022-08-12T23:04:58.358Z,101263.50
2022-08-12T23:07:24.896Z,101265.31
2022-08-12T23:09:51.638Z,101261.81
2022-08-12T23:12:40.947Z,101260.06
2022-08-12T23:15:13.828Z,101263.63
2022-08-12T23:17:41.814Z,101267.19
2022-08-12T23:20:10.952Z,101260.19
2022-08-12T23:22:38.031Z,101268.13
2022-08-12T23:25:04.750Z,101263.72
2022-08-12T23:27:55.649Z,101262.00
2022-08-12T23:30:32.379Z,101263.78
2022-08-12T23:33:03.983Z,101258.47
2022-08-12T23:35:53.712Z,101262.00
2022-08-12T23:38:31.424Z,101260.25
2022-08-12T23:40:59.690Z,101261.13
2022-08-12T23:43:26.423Z,101255.00
2022-08-12T23:46:08.461Z,101253.22
2022-08-12T23:48:35.238Z,101256.78
2022-08-12T23:51:21.668Z,101253.25
2022-08-12T23:53:56.015Z,101255.94
2022-08-12T23:56:26.580Z,101256.81
2022-08-12T23:58:55.186Z,101253.31
